sensor_id;sensor_type;location;lat;lon;timestamp;pressure;altitude;pressure_sealevel;temperature;humidity
72024;BME280;59889;50.700;5.440;2023-04-02T00:01:45;99308.86;;;21.38;35.60
72024;BME280;59889;50.700;5.440;2023-04-02T00:04:14;99312.39;;;21.14;35.63
72024;BME280;59889;50.700;5.440;2023-04-02T00:06:36;99314.73;;;21.41;35.56
72024;BME280;59889;50.700;5.440;2023-04-02T00:09:02;99321.55;;;21.03;35.74
72024;BME280;59889;50.700;5.440;2023-04-02T00:11:29;99324.10;;;21.17;35.57
72024;BME280;59889;50.700;5.440;2023-04-02T00:13:51;99325.37;;;21.45;35.53
72024;BME280;59889;50.700;5.440;2023-04-02T00:16:22;99330.36;;;21.13;35.63
72024;BME280;59889;50.700;5.440;2023-04-02T00:18:43;99332.31;;;21.21;35.51
72024;BME280;59889;50.700;5.440;2023-04-02T00:21:10;99337.89;;;21.25;35.49
72024;BME280;59889;50.700;5.440;2023-04-02T00:23:30;99340.28;;;21.22;35.52
72024;BME280;59889;50.700;5.440;2023-04-02T00:25:55;99340.71;;;21.15;35.60
72024;BME280;59889;50.700;5.440;2023-04-02T00:28:22;99341.49;;;21.16;35.57
72024;BME280;59889;50.700;5.440;2023-04-02T00:30:47;99347.14;;;21.28;35.39
72024;BME280;59889;50.700;5.440;2023-04-02T00:33:14;99349.99;;;21.12;35.60
72024;BME280;59889;50.700;5.440;2023-04-02T00:35:37;99354.73;;;21.36;35.64
72024;BME280;59889;50.700;5.440;2023-04-02T00:38:01;99356.24;;;21.23;35.50
72024;BME280;59889;50.700;5.440;2023-04-02T00:40:28;99362.40;;;21.21;35.49
72024;BME280;59889;50.700;5.440;2023-04-02T00:42:52;99363.06;;;21.21;35.52
72024;BME280;59889;50.700;5.440;2023-04-02T00:45:21;99369.24;;;21.22;35.52
72024;BME280;59889;50.700;5.440;2023-04-02T00:47:41;99373.42;;;21.51;35.45
72024;BME280;59889;50.700;5.440;2023-04-02T00:50:17;99379.22;;;20.88;35.66
72024;BME280;59889;50.700;5.440;2023-04-02T00:52:31;99385.68;;;21.07;35.72
72024;BME280;59889;50.700;5.440;2023-04-02T00:55:02;99380.57;;;21.50;35.46
72024;BME280;59889;50.700;5.440;2023-04-02T00:57:24;99384.89;;;21.43;35.55
72024;BME280;59889;50.700;5.440;2023-04-02T00:59:52;99389.43;;;21.11;35.63
72024;BME280;59889;50.700;5.440;2023-04-02T01:02:23;99393.36;;;21.12;35.65
72024;BME280;59889;50.700;5.440;2023-04-02T01:04:36;99396.01;;;21.34;35.70
72024;BME280;59889;50.700;5.440;2023-04-02T01:07:03;99400.36;;;21.24;35.49
72024;BME280;59889;50.700;5.440;2023-04-02T01:09:37;99403.71;;;21.16;35.60
72024;BME280;59889;50.700;5.440;2023-04-02T01:12:02;99405.88;;;21.15;35.62
72024;BME280;59889;50.700;5.440;2023-04-02T01:14:22;99406.25;;;21.11;35.67
72024;BME280;59889;50.700;5.440;2023-04-02T01:16:48;99413.63;;;21.24;35.50
72024;BME280;59889;50.700;5.440;2023-04-02T01:19:18;99415.00;;;21.43;35.56
72024;BME280;59889;50.700;5.440;2023-04-02T01:21:40;99417.96;;;21.39;35.61
72024;BME280;59889;50.700;5.440;2023-04-02T01:24:01;99422.17;;;21.14;35.63
72024;BME280;59889;50.700;5.440;2023-04-02T01:26:30;99426.00;;;21.05;35.75
72024;BME280;59889;50.700;5.440;2023-04-02T01:28:54;99429.60;;;21.30;35.43
72024;BME280;59889;50.700;5.440;2023-04-02T01:31:14;99436.35;;;21.11;35.70
72024;BME280;59889;50.700;5.440;2023-04-02T01:33:40;99440.60;;;21.14;35.65
72024;BME280;59889;50.700;5.440;2023-04-02T01:36:07;99442.08;;;21.17;35.61
72024;BME280;59889;50.700;5.440;2023-04-02T01:38:32;99449.08;;;21.11;35.69
72024;BME280;59889;50.700;5.440;2023-04-02T01:40:58;99451.58;;;21.16;35.62
72024;BME280;59889;50.700;5.440;2023-04-02T01:43:23;99457.70;;;21.12;35.70
72024;BME280;59889;50.700;5.440;2023-04-02T01:45:43;99461.25;;;21.07;35.73
72024;BME280;59889;50.700;5.440;2023-04-02T01:48:12;99468.95;;;21.13;35.67
72024;BME280;59889;50.700;5.440;2023-04-02T01:50:34;99474.09;;;21.26;35.79
72024;BME280;59889;50.700;5.440;2023-04-02T01:52:59;99477.13;;;21.24;35.52
72024;BME280;59889;50.700;5.440;2023-04-02T01:55:30;99478.39;;;21.27;35.49
72024;BME280;59889;50.700;5.440;2023-04-02T01:57:49;99480.04;;;21.18;35.58
72024;BME280;59889;50.700;5.440;2023-04-02T02:00:14;99485.99;;;21.48;35.53
72024;BME280;59889;50.700;5.440;2023-04-02T02:02:38;99491.63;;;21.22;35.56
72024;BME280;59889;50.700;5.440;2023-04-02T02:05:03;99495.48;;;21.46;35.53
72024;BME280;59889;50.700;5.440;2023-04-02T02:07:28;99496.53;;;21.55;35.45
72024;BME280;59889;50.700;5.440;2023-04-02T02:09:53;99500.70;;;21.09;35.71
72024;BME280;59889;50.700;5.440;2023-04-02T02:12:18;99509.78;;;21.45;35.57
72024;BME280;59889;50.700;5.440;2023-04-02T02:14:47;99512.36;;;21.18;35.59
72024;BME280;59889;50.700;5.440;2023-04-02T02:17:12;99517.04;;;21.66;35.30
72024;BME280;59889;50.700;5.440;2023-04-02T02:19:36;99521.98;;;21.45;35.27
72024;BME280;59889;50.700;5.440;2023-04-02T02:22:07;99521.96;;;21.22;35.28
72024;BME280;59889;50.700;5.440;2023-04-02T02:24:25;99524.76;;;21.15;35.65
72024;BME280;59889;50.700;5.440;2023-04-02T02:26:56;99530.03;;;21.16;35.60
72024;BME280;59889;50.700;5.440;2023-04-02T02:29:17;99535.57;;;21.24;35.55
72024;BME280;59889;50.700;5.440;2023-04-02T02:31:39;99538.34;;;21.45;35.54
72024;BME280;59889;50.700;5.440;2023-04-02T02:34:08;99539.21;;;21.65;35.33
72024;BME280;59889;50.700;5.440;2023-04-02T02:36:34;99543.37;;;21.50;35.22
72024;BME280;59889;50.700;5.440;2023-04-02T02:38:57;99551.25;;;21.24;35.53
72024;BME280;59889;50.700;5.440;2023-04-02T02:41:24;99555.87;;;21.09;35.44
72024;BME280;59889;50.700;5.440;2023-04-02T02:43:50;99556.42;;;21.34;35.67
72024;BME280;59889;50.700;5.440;2023-04-02T02:46:12;99556.45;;;21.12;35.65
72024;BME280;59889;50.700;5.440;2023-04-02T02:48:36;99563.36;;;21.32;35.44
72024;BME280;59889;50.700;5.440;2023-04-02T02:50:59;99567.58;;;21.41;35.64
72024;BME280;59889;50.700;5.440;2023-04-02T02:53:24;99576.12;;;21.44;35.57
72024;BME280;59889;50.700;5.440;2023-04-02T02:55:53;99583.31;;;21.68;35.23
72024;BME280;59889;50.700;5.440;2023-04-02T02:58:15;99591.88;;;21.63;35.35
72024;BME280;59889;50.700;5.440;2023-04-02T03:00:39;99591.76;;;21.38;35.63
72024;BME280;59889;50.700;5.440;2023-04-02T03:03:08;99596.69;;;21.35;35.39
72024;BME280;59889;50.700;5.440;2023-04-02T03:05:29;99594.92;;;21.30;35.77
72024;BME280;59889;50.700;5.440;2023-04-02T03:07:56;99600.43;;;21.10;35.70
72024;BME280;59889;50.700;5.440;2023-04-02T03:10:22;99605.27;;;21.17;35.65
72024;BME280;59889;50.700;5.440;2023-04-02T03:12:48;99610.52;;;21.51;35.20
72024;BME280;59889;50.700;5.440;2023-04-02T03:15:17;99610.23;;;21.52;35.50
72024;BME280;59889;50.700;5.440;2023-04-02T03:17:40;99615.24;;;21.52;35.46
72024;BME280;59889;50.700;5.440;2023-04-02T03:20:03;99620.59;;;21.18;35.57
72024;BME280;59889;50.700;5.440;2023-04-02T03:22:28;99623.98;;;21.35;35.72
72024;BME280;59889;50.700;5.440;2023-04-02T03:24:54;99625.11;;;21.07;35.75
72024;BME280;59889;50.700;5.440;2023-04-02T03:27:17;99631.28;;;21.38;35.68
72024;BME280;59889;50.700;5.440;2023-04-02T03:29:42;99637.70;;;21.03;35.83
72024;BME280;59889;50.700;5.440;2023-04-02T03:32:10;99643.04;;;21.20;35.60
72024;BME280;59889;50.700;5.440;2023-04-02T03:34:33;99652.19;;;21.48;35.56
72024;BME280;59889;50.700;5.440;2023-04-02T03:36:58;99657.11;;;21.31;35.44
72024;BME280;59889;50.700;5.440;2023-04-02T03:39:24;99664.64;;;21.42;35.60
72024;BME280;59889;50.700;5.440;2023-04-02T03:41:47;99667.88;;;21.06;35.77
72024;BME280;59889;50.700;5.440;2023-04-02T03:44:17;99671.03;;;21.43;35.62
72024;BME280;59889;50.700;5.440;2023-04-02T03:46:39;99673.97;;;21.11;35.71
72024;BME280;59889;50.700;5.440;2023-04-02T03:49:02;99675.27;;;21.17;35.64
72024;BME280;59889;50.700;5.440;2023-04-02T03:51:29;99680.88;;;21.27;35.54
72024;BME280;59889;50.700;5.440;2023-04-02T03:53:50;99686.62;;;21.07;35.44
72024;BME280;59889;50.700;5.440;2023-04-02T03:56:24;99689.90;;;21.35;35.39
72024;BME280;59889;50.700;5.440;2023-04-02T03:58:45;99694.25;;;21.32;35.39
72024;BME280;59889;50.700;5.440;2023-04-02T04:01:11;99701.16;;;21.20;35.54
72024;BME280;59889;50.700;5.440;2023-04-02T04:03:36;99705.45;;;21.21;35.55
72024;BME280;59889;50.700;5.440;2023-04-02T04:05:58;99710.18;;;21.08;35.72
72024;BME280;59889;50.700;5.440;2023-04-02T04:08:23;99714.36;;;21.35;35.64
72024;BME280;59889;50.700;5.440;2023-04-02T04:10:50;99721.36;;;21.42;35.58
72024;BME280;59889;50.700;5.440;2023-04-02T04:13:14;99726.39;;;21.15;35.60
72024;BME280;59889;50.700;5.440;2023-04-02T04:15:40;99735.65;;;21.18;35.54
72024;BME280;59889;50.700;5.440;2023-04-02T04:18:06;99734.65;;;21.30;35.38
72024;BME280;59889;50.700;5.440;2023-04-02T04:20:29;99744.74;;;21.42;35.53
72024;BME280;59889;50.700;5.440;2023-04-02T04:22:51;99753.15;;;21.07;35.70
72024;BME280;59889;50.700;5.440;2023-04-02T04:25:20;99755.27;;;21.39;35.27
72024;BME280;59889;50.700;5.440;2023-04-02T04:27:45;99758.13;;;21.60;35.33
72024;BME280;59889;50.700;5.440;2023-04-02T04:30:13;99766.09;;;21.19;35.50
72024;BME280;59889;50.700;5.440;2023-04-02T04:32:33;99770.27;;;21.33;35.65
72024;BME280;59889;50.700;5.440;2023-04-02T04:34:59;99776.36;;;21.22;35.50
72024;BME280;59889;50.700;5.440;2023-04-02T04:37:24;99778.79;;;21.25;35.45
72024;BME280;59889;50.700;5.440;2023-04-02T04:39:49;99781.07;;;21.21;35.46
72024;BME280;59889;50.700;5.440;2023-04-02T04:42:17;99783.98;;;21.33;35.64
72024;BME280;59889;50.700;5.440;2023-04-02T04:44:40;99786.29;;;21.13;35.61
72024;BME280;59889;50.700;5.440;2023-04-02T04:47:06;99787.77;;;21.07;35.68
72024;BME280;59889;50.700;5.440;2023-04-02T04:49:31;99792.45;;;21.26;35.44
72024;BME280;59889;50.700;5.440;2023-04-02T04:51:54;99795.70;;;21.13;35.58
72024;BME280;59889;50.700;5.440;2023-04-02T04:54:17;99801.65;;;21.15;35.56
72024;BME280;59889;50.700;5.440;2023-04-02T04:56:46;99802.96;;;21.27;35.41
72024;BME280;59889;50.700;5.440;2023-04-02T04:59:14;99807.53;;;21.40;36.27
72024;BME280;59889;50.700;5.440;2023-04-02T05:01:35;99814.04;;;21.21;36.15
72024;BME280;59889;50.700;5.440;2023-04-02T05:04:01;99824.01;;;21.25;36.07
72024;BME280;59889;50.700;5.440;2023-04-02T05:08:48;99835.59;;;20.78;35.81
72024;BME280;59889;50.700;5.440;2023-04-02T05:11:18;99842.52;;;21.03;35.62
72024;BME280;59889;50.700;5.440;2023-04-02T05:13:41;99848.59;;;21.10;35.37
72024;BME280;59889;50.700;5.440;2023-04-02T05:16:09;99855.33;;;21.03;35.28
72024;BME280;59889;50.700;5.440;2023-04-02T05:18:31;99858.11;;;20.94;35.36
72024;BME280;59889;50.700;5.440;2023-04-02T05:20:57;99860.27;;;20.82;35.30
72024;BME280;59889;50.700;5.440;2023-04-02T05:23:20;99867.19;;;20.93;35.07
72024;BME280;59889;50.700;5.440;2023-04-02T05:25:50;99868.06;;;20.87;34.99
72024;BME280;59889;50.700;5.440;2023-04-02T05:28:14;99873.27;;;20.82;34.97
72024;BME280;59889;50.700;5.440;2023-04-02T05:30:43;99875.78;;;20.89;34.75
72024;BME280;59889;50.700;5.440;2023-04-02T05:33:02;99879.92;;;20.82;34.80
72024;BME280;59889;50.700;5.440;2023-04-02T05:35:28;99881.88;;;20.75;34.77
72024;BME280;59889;50.700;5.440;2023-04-02T05:37:48;99889.24;;;21.02;34.73
72024;BME280;59889;50.700;5.440;2023-04-02T05:40:19;99889.37;;;20.82;34.62
72024;BME280;59889;50.700;5.440;2023-04-02T05:42:39;99895.88;;;20.72;34.66
72024;BME280;59889;50.700;5.440;2023-04-02T05:45:12;99898.45;;;20.39;34.60
72024;BME280;59889;50.700;5.440;2023-04-02T05:47:30;99901.52;;;20.90;34.53
72024;BME280;59889;50.700;5.440;2023-04-02T05:52:21;99914.97;;;20.70;34.34
72024;BME280;59889;50.700;5.440;2023-04-02T05:54:47;99919.14;;;20.58;34.49
72024;BME280;59889;50.700;5.440;2023-04-02T05:57:12;99925.00;;;20.74;34.46
72024;BME280;59889;50.700;5.440;2023-04-02T05:59:37;99933.50;;;20.63;34.57
72024;BME280;59889;50.700;5.440;2023-04-02T06:02:02;99937.30;;;20.86;34.73
72024;BME280;59889;50.700;5.440;2023-04-02T06:04:27;99941.62;;;20.76;34.24
72024;BME280;59889;50.700;5.440;2023-04-02T06:06:56;99944.94;;;20.66;34.39
72024;BME280;59889;50.700;5.440;2023-04-02T06:09:17;99951.72;;;20.43;35.02
72024;BME280;59889;50.700;5.440;2023-04-02T06:11:43;99957.01;;;20.87;34.75
72024;BME280;59889;50.700;5.440;2023-04-02T06:14:04;99962.89;;;20.40;35.22
72024;BME280;59889;50.700;5.440;2023-04-02T06:16:29;99968.62;;;20.74;35.21
72024;BME280;59889;50.700;5.440;2023-04-02T06:18:55;99973.29;;;20.79;35.25
72024;BME280;59889;50.700;5.440;2023-04-02T06:21:20;99975.33;;;20.67;35.11
72024;BME280;59889;50.700;5.440;2023-04-02T06:23:49;99978.80;;;20.90;35.28
72024;BME280;59889;50.700;5.440;2023-04-02T06:26:17;99986.93;;;21.20;35.42
72024;BME280;59889;50.700;5.440;2023-04-02T06:28:40;99988.51;;;20.61;35.59
72024;BME280;59889;50.700;5.440;2023-04-02T06:31:05;99995.17;;;20.56;35.75
72024;BME280;59889;50.700;5.440;2023-04-02T06:33:25;99998.16;;;20.49;35.88
72024;BME280;59889;50.700;5.440;2023-04-02T06:35:51;100000.07;;;20.60;35.82
72024;BME280;59889;50.700;5.440;2023-04-02T06:38:17;100001.02;;;20.76;36.15
72024;BME280;59889;50.700;5.440;2023-04-02T06:40:43;100008.64;;;21.11;36.06
72024;BME280;59889;50.700;5.440;2023-04-02T06:43:12;100014.57;;;20.96;36.42
72024;BME280;59889;50.700;5.440;2023-04-02T06:45:33;100019.40;;;20.63;36.20
72024;BME280;59889;50.700;5.440;2023-04-02T06:47:56;100027.35;;;20.44;36.74
72024;BME280;59889;50.700;5.440;2023-04-02T06:50:24;100034.02;;;20.74;36.63
72024;BME280;59889;50.700;5.440;2023-04-02T06:52:49;100040.14;;;20.72;37.04
72024;BME280;59889;50.700;5.440;2023-04-02T06:55:23;100042.64;;;20.40;37.30
72024;BME280;59889;50.700;5.440;2023-04-02T06:57:36;100047.29;;;20.56;37.50
72024;BME280;59889;50.700;5.440;2023-04-02T07:00:01;100051.97;;;21.02;36.75
72024;BME280;59889;50.700;5.440;2023-04-02T07:02:29;100054.08;;;20.63;35.73
72024;BME280;59889;50.700;5.440;2023-04-02T07:04:53;100058.04;;;20.48;35.55
72024;BME280;59889;50.700;5.440;2023-04-02T07:07:17;100062.29;;;20.51;36.05
72024;BME280;59889;50.700;5.440;2023-04-02T07:09:42;100069.96;;;20.82;36.61
72024;BME280;59889;50.700;5.440;2023-04-02T07:12:10;100070.37;;;20.84;33.43
72024;BME280;59889;50.700;5.440;2023-04-02T07:14:32;100081.28;;;20.68;32.07
72024;BME280;59889;50.700;5.440;2023-04-02T07:16:57;100088.47;;;20.60;32.68
72024;BME280;59889;50.700;5.440;2023-04-02T07:19:23;100093.14;;;20.71;33.57
72024;BME280;59889;50.700;5.440;2023-04-02T07:21:48;100098.44;;;20.20;34.69
72024;BME280;59889;50.700;5.440;2023-04-02T07:24:13;100101.58;;;20.49;35.18
72024;BME280;59889;50.700;5.440;2023-04-02T07:26:38;100105.68;;;20.27;35.21
72024;BME280;59889;50.700;5.440;2023-04-02T07:29:05;100109.92;;;20.35;35.73
72024;BME280;59889;50.700;5.440;2023-04-02T07:31:28;100117.16;;;20.79;35.77
72024;BME280;59889;50.700;5.440;2023-04-02T07:33:56;100124.74;;;20.78;35.87
72024;BME280;59889;50.700;5.440;2023-04-02T07:36:20;100127.46;;;20.41;36.10
72024;BME280;59889;50.700;5.440;2023-04-02T07:38:43;100129.58;;;20.58;35.67
72024;BME280;59889;50.700;5.440;2023-04-02T07:41:09;100128.56;;;20.91;35.28
72024;BME280;59889;50.700;5.440;2023-04-02T07:43:34;100130.89;;;20.79;35.08
72024;BME280;59889;50.700;5.440;2023-04-02T07:45:58;100134.40;;;20.62;35.44
72024;BME280;59889;50.700;5.440;2023-04-02T07:48:24;100142.68;;;20.79;35.35
72024;BME280;59889;50.700;5.440;2023-04-02T07:50:49;100144.58;;;20.87;35.26
72024;BME280;59889;50.700;5.440;2023-04-02T07:53:25;100151.30;;;20.60;35.46
72024;BME280;59889;50.700;5.440;2023-04-02T07:55:39;100159.93;;;20.61;35.39
72024;BME280;59889;50.700;5.440;2023-04-02T07:58:05;100159.31;;;20.66;35.55
72024;BME280;59889;50.700;5.440;2023-04-02T08:00:30;100163.90;;;20.65;35.69
72024;BME280;59889;50.700;5.440;2023-04-02T08:02:55;100169.90;;;20.63;35.86
72024;BME280;59889;50.700;5.440;2023-04-02T08:05:20;100174.07;;;20.51;36.01
72024;BME280;59889;50.700;5.440;2023-04-02T08:07:51;100177.07;;;20.75;32.93
72024;BME280;59889;50.700;5.440;2023-04-02T08:10:11;100181.75;;;20.74;31.15
72024;BME280;59889;50.700;5.440;2023-04-02T08:12:36;100187.64;;;20.48;30.75
72024;BME280;59889;50.700;5.440;2023-04-02T08:15:02;100196.14;;;20.56;30.58
72024;BME280;59889;50.700;5.440;2023-04-02T08:17:26;100200.79;;;20.38;31.26
72024;BME280;59889;50.700;5.440;2023-04-02T08:19:52;100207.47;;;20.28;31.50
72024;BME280;59889;50.700;5.440;2023-04-02T08:22:18;100209.74;;;20.18;31.44
72024;BME280;59889;50.700;5.440;2023-04-02T08:24:43;100216.12;;;20.22;31.04
72024;BME280;59889;50.700;5.440;2023-04-02T08:27:13;100222.20;;;20.29;30.89
72024;BME280;59889;50.700;5.440;2023-04-02T08:29:34;100224.53;;;20.18;30.57
72024;BME280;59889;50.700;5.440;2023-04-02T08:31:59;100230.31;;;20.20;31.63
72024;BME280;59889;50.700;5.440;2023-04-02T08:34:24;100232.04;;;20.21;31.38
72024;BME280;59889;50.700;5.440;2023-04-02T08:36:55;100234.20;;;20.10;30.18
72024;BME280;59889;50.700;5.440;2023-04-02T08:39:15;100237.05;;;20.38;29.39
72024;BME280;59889;50.700;5.440;2023-04-02T08:41:46;100237.35;;;20.41;28.79
72024;BME280;59889;50.700;5.440;2023-04-02T08:44:14;100245.43;;;19.89;28.71
72024;BME280;59889;50.700;5.440;2023-04-02T08:46:36;100249.85;;;20.14;28.24
72024;BME280;59889;50.700;5.440;2023-04-02T08:48:58;100255.90;;;20.49;27.52
72024;BME280;59889;50.700;5.440;2023-04-02T08:51:23;100262.73;;;19.72;27.82
72024;BME280;59889;50.700;5.440;2023-04-02T08:53:47;100273.10;;;20.08;27.34
72024;BME280;59889;50.700;5.440;2023-04-02T08:56:15;100276.36;;;20.40;27.11
72024;BME280;59889;50.700;5.440;2023-04-02T08:58:40;100279.82;;;20.21;27.32
72024;BME280;59889;50.700;5.440;2023-04-02T09:01:04;100288.32;;;19.91;27.07
72024;BME280;59889;50.700;5.440;2023-04-02T09:03:31;100290.79;;;19.87;27.51
72024;BME280;59889;50.700;5.440;2023-04-02T09:05:54;100296.58;;;19.87;27.48
72024;BME280;59889;50.700;5.440;2023-04-02T09:08:20;100303.52;;;20.21;28.57
72024;BME280;59889;50.700;5.440;2023-04-02T09:10:51;100309.34;;;20.41;28.49
72024;BME280;59889;50.700;5.440;2023-04-02T09:13:16;100315.47;;;20.03;28.57
72024;BME280;59889;50.700;5.440;2023-04-02T09:15:35;100322.72;;;20.32;28.50
72024;BME280;59889;50.700;5.440;2023-04-02T09:18:10;100327.97;;;20.31;28.65
72024;BME280;59889;50.700;5.440;2023-04-02T09:20:26;100335.75;;;19.94;28.64
72024;BME280;59889;50.700;5.440;2023-04-02T09:22:51;100337.34;;;20.52;28.36
72024;BME280;59889;50.700;5.440;2023-04-02T09:25:18;100338.02;;;20.31;28.26
72024;BME280;59889;50.700;5.440;2023-04-02T09:27:47;100343.15;;;20.53;28.05
72024;BME280;59889;50.700;5.440;2023-04-02T09:30:14;100340.98;;;20.07;28.79
72024;BME280;59889;50.700;5.440;2023-04-02T09:32:44;100345.19;;;20.17;29.01
72024;BME280;59889;50.700;5.440;2023-04-02T09:35:08;100350.35;;;20.27;29.50
72024;BME280;59889;50.700;5.440;2023-04-02T09:37:22;100351.86;;;20.30;29.63
72024;BME280;59889;50.700;5.440;2023-04-02T09:39:48;100359.23;;;20.03;29.93
72024;BME280;59889;50.700;5.440;2023-04-02T09:44:38;100367.32;;;20.23;30.36
72024;BME280;59889;50.700;5.440;2023-04-02T09:47:08;100372.92;;;20.50;30.45
72024;BME280;59889;50.700;5.440;2023-04-02T09:49:30;100376.11;;;20.22;30.50
72024;BME280;59889;50.700;5.440;2023-04-02T09:52:05;100385.40;;;20.32;30.67
72024;BME280;59889;50.700;5.440;2023-04-02T09:54:19;100385.48;;;20.08;30.91
72024;BME280;59889;50.700;5.440;2023-04-02T09:56:58;100385.22;;;20.19;31.06
72024;BME280;59889;50.700;5.440;2023-04-02T09:59:15;100386.88;;;20.18;31.25
72024;BME280;59889;50.700;5.440;2023-04-02T10:01:36;100390.43;;;20.37;31.46
72024;BME280;59889;50.700;5.440;2023-04-02T10:04:02;100393.46;;;20.18;31.53
72024;BME280;59889;50.700;5.440;2023-04-02T10:06:27;100394.45;;;20.46;31.61
72024;BME280;59889;50.700;5.440;2023-04-02T10:08:51;100397.97;;;19.86;31.88
72024;BME280;59889;50.700;5.440;2023-04-02T10:11:18;100399.16;;;19.95;32.04
72024;BME280;59889;50.700;5.440;2023-04-02T10:13:48;100407.06;;;20.10;32.26
72024;BME280;59889;50.700;5.440;2023-04-02T10:16:11;100410.23;;;19.84;32.36
72024;BME280;59889;50.700;5.440;2023-04-02T10:18:39;100414.06;;;20.25;32.60
72024;BME280;59889;50.700;5.440;2023-04-02T10:20:58;100421.90;;;20.35;33.10
72024;BME280;59889;50.700;5.440;2023-04-02T10:23:25;100425.98;;;20.36;33.45
72024;BME280;59889;50.700;5.440;2023-04-02T10:25:54;100433.10;;;19.80;34.06
72024;BME280;59889;50.700;5.440;2023-04-02T10:28:22;100439.21;;;20.05;33.90
72024;BME280;59889;50.700;5.440;2023-04-02T10:30:48;100447.91;;;20.41;33.86
72024;BME280;59889;50.700;5.440;2023-04-02T10:33:07;100448.86;;;20.23;34.26
72024;BME280;59889;50.700;5.440;2023-04-02T10:35:38;100450.69;;;20.42;34.60
72024;BME280;59889;50.700;5.440;2023-04-02T10:38:08;100452.35;;;20.36;34.44
72024;BME280;59889;50.700;5.440;2023-04-02T10:40:26;100451.91;;;19.90;34.87
72024;BME280;59889;50.700;5.440;2023-04-02T10:42:52;100457.08;;;20.10;34.76
72024;BME280;59889;50.700;5.440;2023-04-02T10:45:21;100463.94;;;20.07;34.83
72024;BME280;59889;50.700;5.440;2023-04-02T10:47:41;100469.86;;;20.42;35.09
72024;BME280;59889;50.700;5.440;2023-04-02T10:50:14;100477.20;;;20.34;34.96
72024;BME280;59889;50.700;5.440;2023-04-02T10:52:30;100481.25;;;19.93;35.23
72024;BME280;59889;50.700;5.440;2023-04-02T10:54:56;100485.47;;;20.10;35.12
72024;BME280;59889;50.700;5.440;2023-04-02T10:57:27;100487.67;;;20.14;35.36
72024;BME280;59889;50.700;5.440;2023-04-02T10:59:48;100493.82;;;20.34;35.11
72024;BME280;59889;50.700;5.440;2023-04-02T11:04:40;100491.31;;;20.22;35.31
72024;BME280;59889;50.700;5.440;2023-04-02T11:07:04;100493.33;;;19.92;35.41
72024;BME280;59889;50.700;5.440;2023-04-02T11:09:29;100499.44;;;20.14;35.16
72024;BME280;59889;50.700;5.440;2023-04-02T11:11:54;100506.10;;;20.44;35.09
72024;BME280;59889;50.700;5.440;2023-04-02T11:14:21;100513.15;;;20.24;35.32
72024;BME280;59889;50.700;5.440;2023-04-02T11:16:43;100516.94;;;20.14;35.14
72024;BME280;59889;50.700;5.440;2023-04-02T11:19:21;100528.19;;;20.48;35.33
72024;BME280;59889;50.700;5.440;2023-04-02T11:21:37;100528.64;;;20.28;35.31
72024;BME280;59889;50.700;5.440;2023-04-02T11:24:02;100529.47;;;19.92;35.49
72024;BME280;59889;50.700;5.440;2023-04-02T11:26:30;100528.34;;;19.84;35.60
72024;BME280;59889;50.700;5.440;2023-04-02T11:29:00;100529.43;;;20.10;35.57
72024;BME280;59889;50.700;5.440;2023-04-02T11:31:19;100533.10;;;20.49;35.38
72024;BME280;59889;50.700;5.440;2023-04-02T11:33:41;100532.84;;;20.13;35.25
72024;BME280;59889;50.700;5.440;2023-04-02T11:38:48;100542.53;;;20.27;35.42
72024;BME280;59889;50.700;5.440;2023-04-02T11:40:58;100543.98;;;19.90;35.59
72024;BME280;59889;50.700;5.440;2023-04-02T11:45:54;100550.99;;;20.29;35.31
72024;BME280;59889;50.700;5.440;2023-04-02T11:48:25;100551.61;;;20.37;35.31
72024;BME280;59889;50.700;5.440;2023-04-02T11:50:40;100558.70;;;20.18;35.58
72024;BME280;59889;50.700;5.440;2023-04-02T11:55:31;100558.97;;;20.50;35.46
72024;BME280;59889;50.700;5.440;2023-04-02T12:00:30;100571.83;;;20.31;35.40
72024;BME280;59889;50.700;5.440;2023-04-02T12:02:55;100576.03;;;20.21;35.58
72024;BME280;59889;50.700;5.440;2023-04-02T12:05:19;100579.90;;;20.14;35.36
72024;BME280;59889;50.700;5.440;2023-04-02T12:07:46;100587.45;;;20.42;35.60
72024;BME280;59889;50.700;5.440;2023-04-02T12:10:04;100592.00;;;20.23;35.55
72024;BME280;59889;50.700;5.440;2023-04-02T12:12:32;100594.94;;;20.16;35.35
72024;BME280;59889;50.700;5.440;2023-04-02T12:14:54;100596.96;;;20.05;35.49
72024;BME280;59889;50.700;5.440;2023-04-02T12:17:24;100598.81;;;20.03;35.55
72024;BME280;59889;50.700;5.440;2023-04-02T12:19:48;100598.49;;;20.26;35.55
72024;BME280;59889;50.700;5.440;2023-04-02T12:22:17;100601.41;;;20.27;35.56
72024;BME280;59889;50.700;5.440;2023-04-02T12:24:35;100605.40;;;20.59;35.48
72024;BME280;59889;50.700;5.440;2023-04-02T12:27:06;100609.47;;;20.25;35.60
72024;BME280;59889;50.700;5.440;2023-04-02T12:29:27;100615.19;;;20.10;35.78
72024;BME280;59889;50.700;5.440;2023-04-02T12:31:52;100617.36;;;20.07;35.55
72024;BME280;59889;50.700;5.440;2023-04-02T12:34:17;100619.75;;;20.19;35.71
72024;BME280;59889;50.700;5.440;2023-04-02T12:39:15;100613.72;;;20.33;35.53
72024;BME280;59889;50.700;5.440;2023-04-02T12:41:35;100613.37;;;20.42;35.45
72024;BME280;59889;50.700;5.440;2023-04-02T12:43:58;100613.53;;;20.17;35.83
72024;BME280;59889;50.700;5.440;2023-04-02T12:46:22;100616.14;;;20.21;35.89
72024;BME280;59889;50.700;5.440;2023-04-02T12:48:48;100618.87;;;19.99;35.84
72024;BME280;59889;50.700;5.440;2023-04-02T12:51:13;100627.23;;;20.44;35.92
72024;BME280;59889;50.700;5.440;2023-04-02T12:53:40;100631.22;;;19.79;36.23
72024;BME280;59889;50.700;5.440;2023-04-02T12:56:05;100632.32;;;20.24;36.01
72024;BME280;59889;50.700;5.440;2023-04-02T12:58:33;100638.33;;;20.44;36.12
72024;BME280;59889;50.700;5.440;2023-04-02T13:03:20;100645.75;;;20.23;36.09
72024;BME280;59889;50.700;5.440;2023-04-02T13:05:48;100647.70;;;20.19;36.10
72024;BME280;59889;50.700;5.440;2023-04-02T13:08:15;100648.19;;;20.16;36.08